createdAt,value
2019-02-27T00:01:44.576Z,5.50
2019-02-27T00:04:13.473Z,5.10
2019-02-27T00:06:42.422Z,5.80
2019-02-27T00:09:11.398Z,5.30
2019-02-27T00:11:40.639Z,5.47
2019-02-27T00:14:11.369Z,5.27
2019-02-27T00:16:41.776Z,5.60
2019-02-27T00:19:11.371Z,5.10
2019-02-27T00:21:40.886Z,5.00
2019-02-27T00:24:11.180Z,5.60
2019-02-27T00:26:42.474Z,4.87
2019-02-27T00:29:11.071Z,6.13
2019-02-27T00:31:40.072Z,4.97
2019-02-27T00:34:09.122Z,5.27
2019-02-27T00:36:38.136Z,5.20
2019-02-27T00:39:07.834Z,6.07
2019-02-27T00:41:37.081Z,5.83
2019-02-27T00:44:06.320Z,4.87
2019-02-27T00:46:35.570Z,4.43
2019-02-27T00:49:04.459Z,5.33
2019-02-27T00:51:33.463Z,5.40
2019-02-27T00:54:02.662Z,5.20
2019-02-27T00:56:31.941Z,5.73
2019-02-27T00:59:01.128Z,4.40
2019-02-27T01:01:30.418Z,5.17
2019-02-27T01:04:02.342Z,5.70
2019-02-27T01:06:30.768Z,4.80
2019-02-27T01:08:59.648Z,4.90
2019-02-27T01:11:28.837Z,5.13
2019-02-27T01:13:57.947Z,4.60
2019-02-27T01:16:27.168Z,5.33
2019-02-27T01:18:56.495Z,4.53
2019-02-27T01:21:25.763Z,5.17
2019-02-27T01:23:54.917Z,5.50
2019-02-27T01:26:24.646Z,5.33
2019-02-27T01:28:53.667Z,5.60
2019-02-27T01:31:24.056Z,5.27
2019-02-27T01:33:53.561Z,4.40
2019-02-27T01:36:24.610Z,4.70
2019-02-27T01:38:53.420Z,5.90
2019-02-27T01:41:24.581Z,4.73
2019-02-27T01:43:53.509Z,4.33
2019-02-27T01:46:25.131Z,4.90
2019-02-27T01:48:53.074Z,5.13
2019-02-27T01:51:22.378Z,4.57
2019-02-27T01:53:51.574Z,6.10
2019-02-27T01:56:20.559Z,4.43
2019-02-27T01:58:49.595Z,4.60
2019-02-27T02:01:18.831Z,4.17
2019-02-27T02:03:48.179Z,5.03
2019-02-27T02:06:17.479Z,3.63
2019-02-27T02:08:48.202Z,4.77
2019-02-27T02:11:17.647Z,4.10
2019-02-27T02:14:00.118Z,3.80
2019-02-27T02:16:35.564Z,4.23
2019-02-27T02:19:32.622Z,3.53
2019-02-27T02:22:26.952Z,4.13
2019-02-27T02:25:05.468Z,5.47
2019-02-27T02:27:39.122Z,4.77
2019-02-27T02:30:16.560Z,3.63
2019-02-27T02:32:53.238Z,3.80
2019-02-27T02:35:53.333Z,4.13
2019-02-27T02:38:29.836Z,3.37
2019-02-27T02:41:27.108Z,3.90
2019-02-27T02:44:13.903Z,2.77
2019-02-27T02:46:47.769Z,4.13
2019-02-27T02:49:42.758Z,4.27
2019-02-27T02:52:19.491Z,4.30
2019-02-27T02:54:59.638Z,3.17
2019-02-27T02:57:48.093Z,3.10
2019-02-27T03:00:31.328Z,3.00
2019-02-27T03:03:02.589Z,2.90
2019-02-27T03:05:40.470Z,3.30
2019-02-27T03:08:27.489Z,9.50
2019-02-27T03:11:19.300Z,3.67
2019-02-27T03:14:17.609Z,2.40
2019-02-27T03:16:52.652Z,2.80
2019-02-27T03:19:41.755Z,2.83
2019-02-27T03:22:41.605Z,3.13
2019-02-27T03:25:20.393Z,3.60
2019-02-27T03:28:20.584Z,3.17
2019-02-27T03:30:52.604Z,3.90
2019-02-27T03:33:46.641Z,2.60
2019-02-27T03:36:24.481Z,3.07
2019-02-27T03:39:09.586Z,2.87
2019-02-27T03:41:59.383Z,2.70
2019-02-27T03:44:39.167Z,3.83
2019-02-27T03:47:45.146Z,2.70
2019-02-27T03:50:18.547Z,10.27
2019-02-27T03:53:12.760Z,3.77
2019-02-27T03:55:59.995Z,3.30
2019-02-27T03:58:44.262Z,2.97
2019-02-27T04:01:35.483Z,2.97
2019-02-27T04:04:11.115Z,3.20
2019-02-27T04:06:48.968Z,3.00
2019-02-27T04:09:20.230Z,3.00
2019-02-27T04:11:49.376Z,3.00
2019-02-27T04:14:28.750Z,3.30
2019-02-27T04:16:58.035Z,3.37
2019-02-27T04:19:27.294Z,3.30
2019-02-27T04:22:00.599Z,5.50
2019-02-27T04:24:27.430Z,3.70
2019-02-27T04:26:57.573Z,3.40
2019-02-27T04:29:26.942Z,3.53
2019-02-27T04:31:56.399Z,3.00
2019-02-27T04:34:25.941Z,3.73
2019-02-27T04:36:55.416Z,3.53
2019-02-27T04:39:25.103Z,4.00
2019-02-27T04:41:54.589Z,3.80
2019-02-27T04:44:24.440Z,4.13
2019-02-27T04:46:55.063Z,3.60
2019-02-27T04:49:25.444Z,3.90
2019-02-27T04:51:55.035Z,4.50
2019-02-27T04:54:24.330Z,3.73
2019-02-27T04:56:55.047Z,4.07
2019-02-27T04:59:25.589Z,4.20
2019-02-27T05:01:54.561Z,4.53
2019-02-27T05:04:23.839Z,3.07
2019-02-27T05:06:53.242Z,4.07
2019-02-27T05:09:22.453Z,3.97
2019-02-27T05:11:51.914Z,3.80
2019-02-27T05:14:21.104Z,3.40
2019-02-27T05:16:50.766Z,8.57
2019-02-27T05:19:20.010Z,3.20
2019-02-27T05:21:52.287Z,4.30
2019-02-27T05:24:20.304Z,3.87
2019-02-27T05:26:49.482Z,4.70
2019-02-27T05:29:18.750Z,4.63
2019-02-27T05:31:50.173Z,5.43
2019-02-27T05:34:18.665Z,5.50
2019-02-27T05:36:47.738Z,5.10
2019-02-27T05:39:17.258Z,5.40
2019-02-27T05:41:47.377Z,5.10
2019-02-27T05:44:16.268Z,4.13
2019-02-27T05:46:45.798Z,3.83
2019-02-27T05:49:14.741Z,3.80
2019-02-27T05:51:43.899Z,4.00
2019-02-27T05:54:13.161Z,4.33
2019-02-27T05:56:42.506Z,4.50
2019-02-27T05:59:12.681Z,4.47
2019-02-27T06:01:41.924Z,5.43
2019-02-27T06:04:11.212Z,4.53
2019-02-27T06:06:45.001Z,3.80
2019-02-27T06:09:11.465Z,4.77
2019-02-27T06:11:40.842Z,6.10
2019-02-27T06:14:10.514Z,4.43
2019-02-27T06:16:40.794Z,6.67
2019-02-27T06:19:10.822Z,6.47
2019-02-27T06:21:39.842Z,6.87
2019-02-27T06:24:11.584Z,4.50
2019-02-27T06:26:40.077Z,4.97
2019-02-27T06:29:09.431Z,5.50
2019-02-27T06:31:39.524Z,5.30
2019-02-27T06:34:08.718Z,4.20
2019-02-27T06:36:41.887Z,4.50
2019-02-27T06:39:09.764Z,4.90
2019-02-27T06:41:39.969Z,5.03
2019-02-27T06:44:09.005Z,4.83
2019-02-27T06:46:38.018Z,5.67
2019-02-27T06:49:07.064Z,7.10
2019-02-27T06:51:36.539Z,5.60
2019-02-27T06:54:05.774Z,4.67
2019-02-27T06:56:35.207Z,5.73
2019-02-27T06:59:04.455Z,5.70
2019-02-27T07:01:33.782Z,11.40
2019-02-27T07:04:04.779Z,5.57
2019-02-27T07:06:33.722Z,4.40
2019-02-27T07:09:02.682Z,4.03
2019-02-27T07:11:31.714Z,5.07
2019-02-27T07:14:01.119Z,4.80
2019-02-27T07:16:30.189Z,5.10
2019-02-27T07:18:59.254Z,4.70
2019-02-27T07:21:32.547Z,4.60
2019-02-27T07:23:59.035Z,3.80
2019-02-27T07:26:28.348Z,4.57
2019-02-27T07:28:57.673Z,4.20
2019-02-27T07:31:27.011Z,3.90
2019-02-27T07:33:56.076Z,4.27
2019-02-27T07:36:25.317Z,4.20
2019-02-27T07:38:57.636Z,4.07
2019-02-27T07:41:25.697Z,5.60
2019-02-27T07:43:54.953Z,4.77
2019-02-27T07:46:24.211Z,5.03
2019-02-27T07:48:56.386Z,4.83
2019-02-27T07:51:24.299Z,4.70
2019-02-27T07:53:54.542Z,5.80
2019-02-27T07:56:23.726Z,6.10
2019-02-27T07:58:52.935Z,5.13
2019-02-27T08:01:23.629Z,9.37
2019-02-27T08:03:53.667Z,6.70
2019-02-27T08:06:23.674Z,6.13
2019-02-27T08:08:56.916Z,7.13
2019-02-27T08:11:24.141Z,5.83
2019-02-27T08:13:53.586Z,5.50
2019-02-27T08:16:23.532Z,6.13
2019-02-27T08:18:52.773Z,5.87
2019-02-27T08:21:22.334Z,5.77
2019-02-27T08:23:51.713Z,7.00
2019-02-27T08:26:20.956Z,6.87
2019-02-27T08:28:50.165Z,6.07
2019-02-27T08:31:19.417Z,6.67
2019-02-27T08:33:48.763Z,7.30
2019-02-27T08:36:18.005Z,7.57
2019-02-27T08:38:47.588Z,6.70
2019-02-27T08:41:16.892Z,5.60
2019-02-27T08:43:45.936Z,6.97
2019-02-27T08:46:15.649Z,7.47
2019-02-27T08:48:44.968Z,8.87
2019-02-27T08:51:14.294Z,7.30
2019-02-27T08:53:43.959Z,9.03
2019-02-27T08:56:13.011Z,6.87
2019-02-27T08:58:42.252Z,7.30
2019-02-27T09:01:11.506Z,8.00
2019-02-27T09:03:40.571Z,7.40
2019-02-27T09:06:10.151Z,8.83
2019-02-27T09:08:43.380Z,8.13
2019-02-27T09:11:10.224Z,8.90
2019-02-27T09:13:39.795Z,8.33
2019-02-27T09:16:09.104Z,7.57
2019-02-27T09:18:38.668Z,7.90
2019-02-27T09:21:07.761Z,8.40
2019-02-27T09:23:37.356Z,8.20
2019-02-27T09:26:06.600Z,8.23
2019-02-27T09:28:35.995Z,9.10
2019-02-27T09:31:05.345Z,8.37
2019-02-27T09:33:38.733Z,9.80
2019-02-27T09:36:08.024Z,10.60
2019-02-27T09:38:36.372Z,9.40
2019-02-27T09:41:05.818Z,10.27
2019-02-27T09:43:35.166Z,8.27
2019-02-27T09:46:04.504Z,9.03
2019-02-27T09:48:34.045Z,9.20
2019-02-27T09:51:03.348Z,9.20
2019-02-27T09:53:33.959Z,11.30
2019-02-27T09:56:03.285Z,9.90
2019-02-27T09:58:32.259Z,9.67
2019-02-27T10:01:10.050Z,10.20
2019-02-27T10:03:39.102Z,9.23
2019-02-27T10:06:08.816Z,10.10
2019-02-27T10:08:38.701Z,9.50
2019-02-27T10:11:08.339Z,10.77
2019-02-27T10:13:37.970Z,9.57
2019-02-27T10:16:08.080Z,12.17
2019-02-27T10:18:37.474Z,8.30
2019-02-27T10:21:06.475Z,8.40
2019-02-27T10:23:35.726Z,7.53
2019-02-27T10:26:04.818Z,8.53
2019-02-27T10:28:38.796Z,8.10
2019-02-27T10:31:04.666Z,8.87
2019-02-27T10:33:34.000Z,8.07
2019-02-27T10:36:03.643Z,11.40
2019-02-27T10:38:40.108Z,8.90
2019-02-27T10:41:04.902Z,8.63
2019-02-27T10:43:34.250Z,8.80
2019-02-27T10:46:03.343Z,8.63
2019-02-27T10:48:32.514Z,9.33
2019-02-27T10:51:01.563Z,7.43
2019-02-27T10:53:30.672Z,9.10
2019-02-27T10:55:59.650Z,7.70
2019-02-27T10:58:28.907Z,9.17
2019-02-27T11:01:00.896Z,9.70
2019-02-27T11:03:28.729Z,11.30
2019-02-27T11:05:58.399Z,9.13
2019-02-27T11:08:29.575Z,7.90
2019-02-27T11:10:59.001Z,7.83
2019-02-27T11:13:27.958Z,9.80
2019-02-27T11:15:57.174Z,8.83
2019-02-27T11:18:26.472Z,9.60
2019-02-27T11:20:58.240Z,8.23
2019-02-27T11:23:26.426Z,7.33
2019-02-27T11:25:57.009Z,9.37
2019-02-27T11:28:26.434Z,9.17
2019-02-27T11:30:56.240Z,8.97
2019-02-27T11:33:26.182Z,8.63
2019-02-27T11:35:55.514Z,10.23
2019-02-27T11:38:25.340Z,8.97
2019-02-27T11:40:54.884Z,9.60
2019-02-27T11:43:23.909Z,9.20
2019-02-27T11:45:57.510Z,9.70
2019-02-27T11:48:24.911Z,10.67
2019-02-27T11:50:54.300Z,7.77
2019-02-27T11:53:24.501Z,9.27
2019-02-27T11:55:53.986Z,9.07
2019-02-27T11:58:23.284Z,9.33
2019-02-27T12:00:52.331Z,9.50
2019-02-27T12:03:21.308Z,9.30
2019-02-27T12:05:50.336Z,9.50
2019-02-27T12:08:22.321Z,10.07
2019-02-27T12:10:50.621Z,10.50
2019-02-27T12:13:20.030Z,10.10
2019-02-27T12:15:49.283Z,9.07
2019-02-27T12:18:18.483Z,9.33
2019-02-27T12:20:48.259Z,14.10
2019-02-27T12:23:17.613Z,11.10
2019-02-27T12:25:46.677Z,10.57
2019-02-27T12:28:18.255Z,10.83
2019-02-27T12:30:46.538Z,18.60
2019-02-27T12:33:15.849Z,9.30
2019-02-27T12:35:45.059Z,10.20
2019-02-27T12:38:14.056Z,10.70
2019-02-27T12:40:43.265Z,9.33
2019-02-27T12:43:17.219Z,9.87
2019-02-27T12:45:43.665Z,10.00
2019-02-27T12:48:13.345Z,8.73
2019-02-27T12:50:42.751Z,8.13
2019-02-27T12:53:11.891Z,10.97
2019-02-27T12:55:41.110Z,11.40
2019-02-27T12:58:10.365Z,9.83
2019-02-27T13:00:39.933Z,9.00
2019-02-27T13:03:10.693Z,9.17
2019-02-27T13:05:40.065Z,9.90
2019-02-27T13:08:11.226Z,10.57
2019-02-27T13:10:40.208Z,9.57
2019-02-27T13:13:09.420Z,8.70
2019-02-27T13:15:41.084Z,8.50
2019-02-27T13:18:09.410Z,8.50
2019-02-27T13:20:38.490Z,8.80
2019-02-27T13:23:07.813Z,7.93
2019-02-27T13:25:37.092Z,7.27
2019-02-27T13:28:06.348Z,6.67
2019-02-27T13:30:35.665Z,8.23
2019-02-27T13:33:06.821Z,7.53
2019-02-27T13:35:36.321Z,7.10
2019-02-27T13:38:06.007Z,7.13
2019-02-27T13:40:36.292Z,10.87
2019-02-27T13:43:06.621Z,9.10
2019-02-27T13:45:35.930Z,7.30
2019-02-27T13:48:06.132Z,8.47
2019-02-27T13:50:35.826Z,7.50
2019-02-27T13:53:05.250Z,6.00
2019-02-27T13:55:34.558Z,7.27
2019-02-27T13:58:07.135Z,7.77
2019-02-27T14:00:37.365Z,6.60
2019-02-27T14:03:12.034Z,6.13
2019-02-27T14:05:39.289Z,7.40
2019-02-27T14:08:08.743Z,5.50
2019-02-27T14:10:38.783Z,6.90
2019-02-27T14:13:09.672Z,7.30
2019-02-27T14:15:39.426Z,7.13
2019-02-27T14:18:09.486Z,6.23
2019-02-27T14:20:38.815Z,7.97
2019-02-27T14:23:08.775Z,6.30
2019-02-27T14:25:38.203Z,6.83
2019-02-27T14:28:07.937Z,6.80
2019-02-27T14:30:38.499Z,7.17
2019-02-27T14:33:11.185Z,11.37
2019-02-27T14:35:40.687Z,7.80
2019-02-27T14:38:09.749Z,7.93
2019-02-27T14:40:41.189Z,7.40
2019-02-27T14:43:10.559Z,6.43
2019-02-27T14:45:40.985Z,6.87
2019-02-27T14:48:10.494Z,6.40
2019-02-27T14:50:39.802Z,8.00
2019-02-27T14:53:10.206Z,7.50
2019-02-27T14:55:40.758Z,7.10
2019-02-27T14:58:10.260Z,7.37
2019-02-27T15:00:41.017Z,6.87
2019-02-27T15:03:10.569Z,5.93
2019-02-27T15:05:44.966Z,6.97
2019-02-27T15:08:16.432Z,6.33
2019-02-27T15:10:53.851Z,8.47
2019-02-27T15:13:28.157Z,6.20
2019-02-27T15:15:55.053Z,6.90
2019-02-27T15:18:25.179Z,6.43
2019-02-27T15:20:55.012Z,5.77
2019-02-27T15:23:28.217Z,5.23
2019-02-27T15:25:56.192Z,6.83
2019-02-27T15:28:27.062Z,7.57
2019-02-27T15:31:06.647Z,6.67
2019-02-27T15:33:38.927Z,6.30
2019-02-27T15:36:07.667Z,7.40
2019-02-27T15:38:37.020Z,6.20
2019-02-27T15:41:06.587Z,6.17
2019-02-27T15:43:36.478Z,5.80
2019-02-27T15:46:07.804Z,6.47
2019-02-27T15:48:38.180Z,4.53
2019-02-27T15:51:09.315Z,6.00
2019-02-27T15:53:38.291Z,6.47
2019-02-27T15:56:09.761Z,6.57
2019-02-27T15:58:41.617Z,6.40
2019-02-27T16:01:12.413Z,5.63
2019-02-27T16:03:51.985Z,5.23
2019-02-27T16:06:21.768Z,7.53
2019-02-27T16:08:57.443Z,5.57
2019-02-27T16:11:25.733Z,4.43
2019-02-27T16:13:57.808Z,4.77
2019-02-27T16:16:49.391Z,6.23
2019-02-27T16:19:20.421Z,3.67
2019-02-27T16:21:50.536Z,5.00
2019-02-27T16:24:24.287Z,6.20
2019-02-27T16:26:57.928Z,5.33
2019-02-27T16:29:27.594Z,4.77
2019-02-27T16:31:57.889Z,4.73
2019-02-27T16:34:29.664Z,3.90
2019-02-27T16:37:00.642Z,4.53
2019-02-27T16:39:33.208Z,5.07
2019-02-27T16:42:10.208Z,5.43
2019-02-27T16:44:40.873Z,5.20
2019-02-27T16:47:15.510Z,5.00
2019-02-27T16:49:47.243Z,5.40
2019-02-27T16:52:18.295Z,5.53
2019-02-27T16:54:50.743Z,5.50
2019-02-27T16:57:24.139Z,5.47
2019-02-27T16:59:52.459Z,4.27
2019-02-27T17:02:23.806Z,5.40
2019-02-27T17:04:54.041Z,7.77
2019-02-27T17:07:26.799Z,6.40
2019-02-27T17:09:57.012Z,5.47
2019-02-27T17:12:27.256Z,6.40
2019-02-27T17:14:59.734Z,6.70
2019-02-27T17:17:46.062Z,6.40
2019-02-27T17:20:45.804Z,6.80
2019-02-27T17:26:21.664Z,6.90
2019-02-27T17:28:53.530Z,6.23
2019-02-27T17:31:22.869Z,6.70
2019-02-27T17:33:53.869Z,6.50
2019-02-27T17:39:13.605Z,6.33
2019-02-27T17:41:45.467Z,5.67
2019-02-27T17:44:15.411Z,6.30
2019-02-27T17:46:45.581Z,5.60
2019-02-27T17:49:15.658Z,6.03
2019-02-27T17:51:51.392Z,6.70
2019-02-27T17:54:21.892Z,6.00
2019-02-27T17:56:51.196Z,6.87
2019-02-27T17:59:22.747Z,6.20
2019-02-27T18:01:58.486Z,5.60
2019-02-27T18:04:26.210Z,8.20
2019-02-27T18:07:09.173Z,7.23
2019-02-27T18:09:37.704Z,6.37
2019-02-27T18:12:08.662Z,7.00
2019-02-27T18:14:43.907Z,8.83
2019-02-27T18:17:10.946Z,7.50
2019-02-27T18:19:41.932Z,7.70
2019-02-27T18:22:14.660Z,10.40
2019-02-27T18:24:43.476Z,8.97
2019-02-27T18:27:15.411Z,8.00
2019-02-27T18:29:47.061Z,8.83
2019-02-27T18:32:16.758Z,9.40
2019-02-27T18:34:46.823Z,9.10
2019-02-27T18:37:23.823Z,9.20
2019-02-27T18:39:53.798Z,9.40
2019-02-27T18:42:22.986Z,8.30
2019-02-27T18:44:56.063Z,7.53
2019-02-27T18:47:26.250Z,7.80
2019-02-27T18:49:55.989Z,8.07
2019-02-27T18:52:26.245Z,8.67
2019-02-27T18:54:56.057Z,8.30
2019-02-27T18:57:25.266Z,11.10
2019-02-27T18:59:54.828Z,10.23
2019-02-27T19:02:24.625Z,9.17
2019-02-27T19:04:54.774Z,9.40
2019-02-27T19:07:24.073Z,9.87
2019-02-27T19:09:56.457Z,9.57
2019-02-27T19:12:28.593Z,11.53
2019-02-27T19:14:57.302Z,10.70
2019-02-27T19:17:29.167Z,8.70
2019-02-27T19:19:58.153Z,9.57
2019-02-27T19:22:27.497Z,7.93
2019-02-27T19:25:00.071Z,8.67
2019-02-27T19:27:28.346Z,8.53
